Pagina principale
METAR-TAF:

METAR-TAF

Aeroporti :

Cerklje ob Krki, Slovenia

latitudine: 45-53-59N, longitudine: 15-30-55E, altezza: 157 m

Osservazione

Il bollettino è stato emesso 31 minuti fa, alle 05:00 UTC
Vento calmo
Temperature -3°C
Umidità 93%
Pressione 1022 hPa
Visibilità: 4000 m
foschia

METAR: LJCE 200500Z 00000KT 4000 BR NSC M03/M04 Q1022 RMK GRN

Ora: 06:31 (05:31 UTC)

Previsione

Il bollettino è stato emesso 3 ore e 31 minuti fa, alle 02:00 UTC
Previsione valida dal 20 alle 03 UTC al 20 alle 12 UTC
Vento 5 kt da ovest
Visibilità 10 km o più
nessuna nube inferiore a 1500 m e nessun cumulonembo

TAF: LJCE 200200Z 2003/2012 26005KT CAVOK

Osservazioni e previsioni meteorologiche di più di 4000 aeroporti (messaggi METAR e TAF).

Le stazioni disponibili sono rappresentate dai dischi gialli e rossi sulla carta.

Puntare il mouse per vedere il nome della stazione.

Clicca sopra per visualizzare le osservazioni e previsioni meteorologiche.

Per cambiare la mappa : fare clic sui pulsanti verdi con una croce nera per ingrandire, il pulsante verde con un trattino per diminuire, o sulla freccia verde per le mappe adiacenti.


METAR-TAF: